createdAt,value
2022-12-25T00:02:03.756Z,98566.09
2022-12-25T00:04:32.976Z,98563.81
2022-12-25T00:07:02.278Z,98567.22
2022-12-25T00:09:31.579Z,98553.94
2022-12-25T00:12:00.891Z,98568.19
2022-12-25T00:14:30.323Z,98582.28
2022-12-25T00:16:59.528Z,98566.72
2022-12-25T00:19:28.780Z,98564.44
2022-12-25T00:21:58.282Z,98564.09
2022-12-25T00:24:27.551Z,98567.91
2022-12-25T00:26:56.838Z,98563.41
2022-12-25T00:29:26.032Z,98564.06
2022-12-25T00:31:55.258Z,98565.34
2022-12-25T00:34:24.473Z,98579.41
2022-12-25T00:36:53.664Z,98593.25
2022-12-25T00:39:22.882Z,98594.50
2022-12-25T00:42:10.664Z,98591.72
2022-12-25T00:44:39.807Z,98586.41
2022-12-25T00:47:09.066Z,98596.38
2022-12-25T00:49:38.439Z,98596.50
2022-12-25T00:52:07.997Z,98601.47
2022-12-25T00:54:37.947Z,98619.91
2022-12-25T00:57:07.253Z,98614.25
2022-12-25T00:59:36.517Z,98608.41
2022-12-25T01:02:23.974Z,98612.94
2022-12-25T01:04:57.284Z,98611.97
2022-12-25T01:07:27.403Z,98610.91
2022-12-25T01:10:15.107Z,98623.16
2022-12-25T01:12:44.295Z,98618.00
2022-12-25T01:15:14.227Z,98619.28
2022-12-25T01:17:44.621Z,98613.72
2022-12-25T01:20:16.658Z,98630.53
2022-12-25T01:22:46.281Z,98637.59
2022-12-25T01:25:15.506Z,98639.09
2022-12-25T01:27:44.770Z,98641.88
2022-12-25T01:30:14.125Z,98642.81
2022-12-25T01:32:43.401Z,98624.75
2022-12-25T01:35:12.724Z,98631.81
2022-12-25T01:37:42.076Z,98630.53
2022-12-25T01:40:11.993Z,98634.72
2022-12-25T01:42:42.740Z,98629.56
2022-12-25T01:45:34.853Z,98637.00
2022-12-25T01:48:12.062Z,98636.66
2022-12-25T01:50:48.935Z,98635.31
2022-12-25T01:53:18.257Z,98632.66
2022-12-25T01:55:54.336Z,98630.75
2022-12-25T01:58:24.607Z,98634.00
2022-12-25T02:00:54.468Z,98642.41
2022-12-25T02:03:25.415Z,98645.16
2022-12-25T02:05:55.125Z,98636.59
2022-12-25T02:08:25.138Z,98645.44
2022-12-25T02:10:54.473Z,98646.31
2022-12-25T02:13:23.713Z,98656.31
2022-12-25T02:16:10.507Z,98672.75
2022-12-25T02:18:48.083Z,98675.13
2022-12-25T02:21:23.824Z,98677.72
2022-12-25T02:24:34.775Z,98672.69
2022-12-25T02:27:42.321Z,98669.88
2022-12-25T02:30:12.586Z,98688.75
2022-12-25T02:33:20.255Z,98693.84
2022-12-25T02:35:56.285Z,98690.34
2022-12-25T02:38:38.384Z,98687.50
2022-12-25T02:41:16.228Z,98691.56
2022-12-25T02:44:05.805Z,98675.94
2022-12-25T02:46:53.895Z,98668.75
2022-12-25T02:49:44.662Z,98665.13
2022-12-25T02:52:40.560Z,98674.88
2022-12-25T02:55:38.026Z,98669.34
2022-12-25T02:58:36.455Z,98678.72
2022-12-25T03:01:31.979Z,98678.72
2022-12-25T03:04:28.569Z,98683.59
2022-12-25T03:07:23.677Z,98658.56
2022-12-25T03:10:21.552Z,98669.44
2022-12-25T03:12:56.724Z,98676.88
2022-12-25T03:15:44.813Z,98668.47
2022-12-25T03:18:19.617Z,98686.25
2022-12-25T03:21:07.549Z,98682.56
2022-12-25T03:23:58.653Z,98673.72
2022-12-25T03:26:46.980Z,98674.66
2022-12-25T03:29:36.140Z,98691.13
2022-12-25T03:32:21.495Z,98686.81
2022-12-25T03:35:18.267Z,98679.38
2022-12-25T03:38:49.484Z,98682.69
2022-12-25T03:42:04.679Z,98693.22
2022-12-25T03:45:24.642Z,98705.88
2022-12-25T03:48:09.389Z,98692.50
2022-12-25T03:51:08.216Z,98702.56
2022-12-25T03:54:08.342Z,98715.22
2022-12-25T03:56:57.192Z,98697.63
2022-12-25T03:59:45.412Z,98703.63
2022-12-25T04:02:33.090Z,98718.69
2022-12-25T04:05:20.894Z,98711.91
2022-12-25T04:08:08.551Z,98704.19
2022-12-25T04:10:56.520Z,98710.44
2022-12-25T04:13:44.020Z,98714.38
2022-12-25T04:16:31.745Z,98722.53
2022-12-25T04:19:19.627Z,98716.03
2022-12-25T04:22:07.481Z,98719.31
2022-12-25T04:24:54.979Z,98725.66
2022-12-25T04:27:42.841Z,98727.16
2022-12-25T04:30:31.046Z,98735.97
2022-12-25T04:33:18.615Z,98744.81
2022-12-25T04:36:06.729Z,98740.47
2022-12-25T04:38:37.152Z,98731.75
2022-12-25T04:41:09.040Z,98737.91
2022-12-25T04:43:38.419Z,98725.53
2022-12-25T04:46:07.801Z,98732.59
2022-12-25T04:48:37.450Z,98756.72
2022-12-25T04:51:22.667Z,98746.41
2022-12-25T04:53:53.230Z,98745.75
2022-12-25T04:56:23.400Z,98743.44
2022-12-25T04:58:52.628Z,98738.03
2022-12-25T05:01:21.992Z,98737.75
2022-12-25T05:03:52.074Z,98750.09
2022-12-25T05:06:21.458Z,98760.00
2022-12-25T05:08:50.690Z,98765.97
2022-12-25T05:11:20.121Z,98760.28
2022-12-25T05:13:49.330Z,98755.94
2022-12-25T05:16:21.166Z,98761.34
2022-12-25T05:18:51.543Z,98766.78
2022-12-25T05:21:21.015Z,98778.72
2022-12-25T05:23:52.313Z,98771.38
2022-12-25T05:26:26.181Z,98770.97
2022-12-25T05:28:55.825Z,98776.34
2022-12-25T05:31:25.118Z,98775.66
2022-12-25T05:33:54.391Z,98775.66
2022-12-25T05:36:23.640Z,98773.06
2022-12-25T05:38:52.847Z,98766.38
2022-12-25T05:41:22.068Z,98762.00
2022-12-25T05:43:52.661Z,98766.31
2022-12-25T05:46:22.109Z,98755.69
2022-12-25T05:48:51.368Z,98761.34
2022-12-25T05:51:20.563Z,98768.50
2022-12-25T05:53:49.819Z,98783.31
2022-12-25T05:56:19.063Z,98791.38
2022-12-25T05:58:48.548Z,98799.13
2022-12-25T06:01:21.624Z,98810.00
2022-12-25T06:03:51.481Z,98814.59
2022-12-25T06:06:20.923Z,98806.16
2022-12-25T06:08:50.161Z,98811.28
2022-12-25T06:11:19.450Z,98814.22
2022-12-25T06:13:52.953Z,98818.31
2022-12-25T06:16:22.360Z,98808.78
2022-12-25T06:18:52.274Z,98803.88
2022-12-25T06:21:21.542Z,98809.38
2022-12-25T06:23:50.929Z,98798.34
2022-12-25T06:26:20.693Z,98820.34
2022-12-25T06:28:49.912Z,98825.09
2022-12-25T06:31:24.583Z,98831.72
2022-12-25T06:33:53.834Z,98834.47
2022-12-25T06:36:26.132Z,98838.38
2022-12-25T06:38:55.899Z,98842.06
2022-12-25T06:41:27.536Z,98850.22
2022-12-25T06:44:01.376Z,98859.59
2022-12-25T06:46:31.467Z,98860.41
2022-12-25T06:49:01.034Z,98862.84
2022-12-25T06:51:32.440Z,98861.06
2022-12-25T06:54:04.941Z,98864.63
2022-12-25T06:56:34.809Z,98866.91
2022-12-25T06:59:10.447Z,98872.50
2022-12-25T07:01:52.513Z,98875.22
2022-12-25T07:04:25.847Z,98867.34
2022-12-25T07:06:55.570Z,98874.94
2022-12-25T07:09:25.418Z,98878.84
2022-12-25T07:11:54.832Z,98879.41
2022-12-25T07:14:24.855Z,98879.09
2022-12-25T07:16:54.149Z,98881.41
2022-12-25T07:19:23.664Z,98872.28
2022-12-25T07:21:52.901Z,98886.72
2022-12-25T07:24:23.610Z,98892.41
2022-12-25T07:26:53.971Z,98891.16
2022-12-25T07:29:23.131Z,98905.13
2022-12-25T07:31:52.407Z,98905.66
2022-12-25T07:34:23.030Z,98913.97
2022-12-25T07:36:54.194Z,98902.66
2022-12-25T07:39:23.952Z,98906.19
2022-12-25T07:41:53.260Z,98911.06
2022-12-25T07:44:22.542Z,98919.34
2022-12-25T07:46:51.947Z,98915.13
2022-12-25T07:49:21.302Z,98924.25
2022-12-25T07:51:50.546Z,98917.31
2022-12-25T07:54:20.856Z,98935.41
2022-12-25T07:56:53.495Z,98930.50
2022-12-25T07:59:22.696Z,98931.19
2022-12-25T08:01:52.065Z,98936.06
2022-12-25T08:04:21.571Z,98948.44
2022-12-25T08:06:50.769Z,98953.97
2022-12-25T08:09:19.961Z,98952.06
2022-12-25T08:11:49.201Z,98955.31
2022-12-25T08:14:18.434Z,98960.50
2022-12-25T08:16:47.948Z,98958.88
2022-12-25T08:19:17.279Z,98960.78
2022-12-25T08:21:46.559Z,98971.13
2022-12-25T08:24:15.938Z,98971.63
2022-12-25T08:26:45.181Z,98965.34
2022-12-25T08:29:14.940Z,98976.91
2022-12-25T08:31:46.711Z,98977.69
2022-12-25T08:34:16.443Z,98976.59
2022-12-25T08:36:46.033Z,98966.66
2022-12-25T08:39:15.289Z,98979.13
2022-12-25T08:41:44.476Z,98977.22
2022-12-25T08:44:13.824Z,98978.03
2022-12-25T08:46:43.055Z,98981.31
2022-12-25T08:49:12.518Z,98987.19
2022-12-25T08:51:43.828Z,98986.53
2022-12-25T08:54:13.067Z,98981.59
2022-12-25T08:56:42.309Z,98990.53
2022-12-25T08:59:11.868Z,98985.00
2022-12-25T09:01:41.245Z,98983.50
2022-12-25T09:04:10.571Z,98986.63
2022-12-25T09:06:39.927Z,99001.09
2022-12-25T09:09:09.423Z,98989.06
2022-12-25T09:11:38.896Z,98990.94
2022-12-25T09:14:09.836Z,98983.53
2022-12-25T09:16:39.226Z,98975.03
2022-12-25T09:19:08.498Z,98977.41
2022-12-25T09:21:37.764Z,98973.91
2022-12-25T09:24:07.411Z,98975.09
2022-12-25T09:26:37.361Z,98984.47
2022-12-25T09:29:06.623Z,98980.78
2022-12-25T09:31:35.979Z,98978.34
2022-12-25T09:34:05.226Z,98987.28
2022-12-25T09:36:34.448Z,98987.00
2022-12-25T09:39:04.091Z,98995.72
2022-12-25T09:42:14.509Z,98997.06
2022-12-25T09:45:00.486Z,98988.63
2022-12-25T09:47:35.718Z,98992.84
2022-12-25T09:50:14.025Z,98995.13
2022-12-25T09:53:05.612Z,98997.06
2022-12-25T09:55:46.170Z,98995.56
2022-12-25T09:58:16.229Z,98994.56
2022-12-25T10:00:56.233Z,99001.78
2022-12-25T10:04:21.474Z,99003.16
2022-12-25T10:07:11.480Z,99003.50
2022-12-25T10:10:03.590Z,98996.53
2022-12-25T10:13:12.418Z,98994.00
2022-12-25T10:16:07.723Z,99005.09
2022-12-25T10:19:16.729Z,99002.66
2022-12-25T10:21:48.644Z,98989.41
2022-12-25T10:24:37.133Z,98998.91
2022-12-25T10:27:32.829Z,99006.41
2022-12-25T10:30:32.508Z,99000.31
2022-12-25T10:33:02.212Z,99011.72
2022-12-25T10:35:33.052Z,99013.84
2022-12-25T10:38:13.293Z,99001.84
2022-12-25T10:41:28.225Z,99011.88
2022-12-25T10:43:58.042Z,99007.47
2022-12-25T10:46:29.919Z,99010.38
2022-12-25T10:49:02.873Z,99005.25
2022-12-25T10:51:39.227Z,99007.19
2022-12-25T10:54:27.913Z,99007.28
2022-12-25T10:56:59.976Z,99006.03
2022-12-25T10:59:41.383Z,99005.72
2022-12-25T11:02:36.172Z,98994.88
2022-12-25T11:05:15.349Z,98993.66
2022-12-25T11:07:51.257Z,98989.44
2022-12-25T11:10:37.241Z,98982.13
2022-12-25T11:13:16.848Z,98976.63
2022-12-25T11:15:49.931Z,98980.19
2022-12-25T11:18:29.235Z,98979.53
2022-12-25T11:21:02.767Z,98980.19
2022-12-25T11:23:33.113Z,98989.59
2022-12-25T11:26:07.761Z,98987.66
2022-12-25T11:28:40.481Z,98993.28
2022-12-25T11:31:19.267Z,98987.13
2022-12-25T11:34:06.751Z,98991.50
2022-12-25T11:36:52.638Z,98996.88
2022-12-25T11:39:28.305Z,98993.19
2022-12-25T11:42:14.336Z,98979.25
2022-12-25T11:44:56.666Z,98974.41
2022-12-25T11:47:43.516Z,98982.50
2022-12-25T11:50:35.614Z,98970.44
2022-12-25T11:53:39.679Z,98972.06
2022-12-25T11:56:14.507Z,98969.91
2022-12-25T11:58:53.818Z,98973.13
2022-12-25T12:01:45.419Z,98970.03
2022-12-25T12:04:30.041Z,98964.38
2022-12-25T12:07:30.119Z,98954.78
2022-12-25T12:10:42.355Z,98948.25
2022-12-25T12:13:45.110Z,98940.94
2022-12-25T12:16:14.574Z,98958.78
2022-12-25T12:18:50.140Z,98958.34
2022-12-25T12:21:27.309Z,98951.69
2022-12-25T12:24:20.691Z,98945.72
2022-12-25T12:27:07.838Z,98944.75
2022-12-25T12:29:44.326Z,98939.25
2022-12-25T12:32:36.904Z,98941.19
2022-12-25T12:35:25.718Z,98944.44
2022-12-25T12:38:12.037Z,98932.56
2022-12-25T12:40:51.564Z,98939.00
2022-12-25T12:43:26.625Z,98938.19
2022-12-25T12:46:16.078Z,98937.72
2022-12-25T12:48:50.244Z,98934.84
2022-12-25T12:51:36.328Z,98942.44
2022-12-25T12:54:24.033Z,98941.44
2022-12-25T12:57:25.322Z,98934.69
2022-12-25T12:59:56.557Z,98942.53
2022-12-25T13:03:07.785Z,98928.09
2022-12-25T13:05:50.801Z,98926.63
2022-12-25T13:09:03.918Z,98920.16
2022-12-25T13:11:40.715Z,98918.25
2022-12-25T13:14:19.640Z,98914.63
2022-12-25T13:16:53.588Z,98920.16
2022-12-25T13:19:27.526Z,98939.47
2022-12-25T13:22:03.818Z,98935.72
2022-12-25T13:24:38.664Z,98940.09
2022-12-25T13:27:27.957Z,98937.78
2022-12-25T13:29:58.650Z,98943.94
2022-12-25T13:32:33.297Z,98959.34
2022-12-25T13:35:02.889Z,98948.94
2022-12-25T13:37:32.469Z,98945.59
2022-12-25T13:40:06.476Z,98932.41
2022-12-25T13:42:39.871Z,98928.66
2022-12-25T13:45:30.801Z,98935.13
2022-12-25T13:48:16.091Z,98935.09
2022-12-25T13:50:48.523Z,98934.38
2022-12-25T13:53:18.527Z,98938.22
2022-12-25T13:55:54.444Z,98941.13
2022-12-25T13:58:34.846Z,98945.94
2022-12-25T14:01:04.436Z,98952.56
2022-12-25T14:03:44.023Z,98961.28
2022-12-25T14:06:29.943Z,98970.94
2022-12-25T14:08:59.998Z,98963.09
2022-12-25T14:11:31.742Z,98958.72
2022-12-25T14:14:11.994Z,98963.41
2022-12-25T14:16:43.648Z,98966.72
2022-12-25T14:19:24.512Z,98958.31
2022-12-25T14:22:04.893Z,98951.34
2022-12-25T14:24:35.165Z,98966.72
2022-12-25T14:27:07.874Z,98964.59
2022-12-25T14:29:46.933Z,98959.41
2022-12-25T14:32:24.442Z,98956.97
2022-12-25T14:34:59.390Z,98971.84
2022-12-25T14:37:32.234Z,98974.06
2022-12-25T14:40:06.655Z,98972.09
2022-12-25T14:42:37.188Z,98978.81
2022-12-25T14:45:32.857Z,98972.28
2022-12-25T14:48:22.913Z,98967.47
2022-12-25T14:51:01.424Z,98988.09
2022-12-25T14:53:51.094Z,98977.16
2022-12-25T14:56:23.248Z,98974.03
2022-12-25T14:58:56.971Z,98969.94
2022-12-25T15:01:33.466Z,98972.69
2022-12-25T15:04:12.075Z,98975.41
2022-12-25T15:06:53.881Z,98963.59
2022-12-25T15:09:24.171Z,98968.09
2022-12-25T15:11:56.323Z,98965.34
2022-12-25T15:14:27.299Z,98967.28
2022-12-25T15:17:01.344Z,98964.03
2022-12-25T15:19:38.668Z,98976.28
2022-12-25T15:22:13.048Z,98986.63
2022-12-25T15:24:42.307Z,98988.03
2022-12-25T15:27:18.307Z,98960.81
2022-12-25T15:32:38.095Z,98955.41
2022-12-25T15:35:15.126Z,98955.69
2022-12-25T15:37:44.723Z,98963.16
2022-12-25T15:40:16.330Z,98976.38
2022-12-25T15:42:49.057Z,98973.28
2022-12-25T15:45:27.031Z,98969.56
2022-12-25T15:47:57.333Z,98972.00
2022-12-25T15:50:26.638Z,98977.72
2022-12-25T15:52:55.948Z,98974.19
2022-12-25T15:55:25.398Z,98968.19
2022-12-25T15:57:54.791Z,98965.19
2022-12-25T16:00:25.842Z,98959.78
2022-12-25T16:02:55.699Z,98958.13
2022-12-25T16:05:25.059Z,98961.69
2022-12-25T16:07:54.290Z,98962.25
2022-12-25T16:10:23.528Z,98954.63
2022-12-25T16:12:52.787Z,98954.38
2022-12-25T16:15:21.988Z,98944.41
2022-12-25T16:17:51.283Z,98946.41
2022-12-25T16:20:20.463Z,98958.22
2022-12-25T16:22:49.766Z,98960.09
2022-12-25T16:25:19.919Z,98971.38
2022-12-25T16:27:49.381Z,98983.09
2022-12-25T16:30:19.183Z,98987.97
2022-12-25T16:32:51.862Z,99002.47
2022-12-25T16:35:21.092Z,98997.84
2022-12-25T16:37:50.352Z,98990.06
2022-12-25T16:40:19.984Z,98988.69
2022-12-25T16:42:49.226Z,98983.22
2022-12-25T16:45:18.645Z,98976.50
2022-12-25T16:47:47.866Z,98983.16
2022-12-25T16:50:17.201Z,98970.88
2022-12-25T16:52:46.396Z,98972.22
2022-12-25T16:55:15.690Z,98971.94
2022-12-25T16:57:47.813Z,98981.69
2022-12-25T17:00:18.505Z,98981.41
2022-12-25T17:02:47.875Z,98978.66
2022-12-25T17:05:17.470Z,98975.09
2022-12-25T17:07:47.127Z,98982.88
2022-12-25T17:10:17.284Z,98977.84
2022-12-25T17:12:46.551Z,98976.78
2022-12-25T17:15:16.013Z,98969.47
2022-12-25T17:17:45.309Z,98960.91
2022-12-25T17:20:14.611Z,98956.22
2022-12-25T17:22:43.870Z,98962.91
2022-12-25T17:25:13.234Z,98960.84
2022-12-25T17:27:42.598Z,98949.22
2022-12-25T17:30:12.073Z,98944.56
2022-12-25T17:32:41.343Z,98945.38
2022-12-25T17:35:10.731Z,98947.66
2022-12-25T17:37:40.518Z,98944.91
2022-12-25T17:40:10.753Z,98943.97
2022-12-25T17:42:40.001Z,98933.59
2022-12-25T17:45:10.037Z,98932.94
2022-12-25T17:47:39.275Z,98934.56
2022-12-25T17:50:08.883Z,98930.34
2022-12-25T17:52:38.114Z,98941.50
2022-12-25T17:55:08.005Z,98949.44
2022-12-25T17:57:37.223Z,98955.72
2022-12-25T18:00:07.645Z,98969.03
2022-12-25T18:02:38.081Z,98959.41
2022-12-25T18:05:08.462Z,98975.56
2022-12-25T18:07:37.764Z,98968.81
2022-12-25T18:10:07.931Z,98960.97
2022-12-25T18:12:37.412Z,98956.69
2022-12-25T18:15:07.466Z,98961.25
2022-12-25T18:17:36.815Z,98954.00
2022-12-25T18:20:07.381Z,98948.38
2022-12-25T18:22:36.639Z,98944.81
2022-12-25T18:25:08.480Z,98948.84
2022-12-25T18:27:37.738Z,98946.25
2022-12-25T18:30:07.956Z,98953.56
2022-12-25T18:32:37.212Z,98937.06
2022-12-25T18:35:07.541Z,98930.91
2022-12-25T18:37:40.203Z,98904.34
2022-12-25T18:40:10.340Z,98909.38
2022-12-25T18:42:39.611Z,98900.75
2022-12-25T18:45:13.362Z,98910.44
2022-12-25T18:47:42.694Z,98900.75
2022-12-25T18:50:12.672Z,98909.84
2022-12-25T18:52:48.731Z,98908.03
2022-12-25T18:55:20.643Z,98901.75
2022-12-25T18:57:49.905Z,98895.31
2022-12-25T19:00:19.920Z,98911.50
2022-12-25T19:02:50.398Z,98916.38
2022-12-25T19:05:19.664Z,98917.72
2022-12-25T19:07:48.919Z,98930.66
2022-12-25T19:10:18.204Z,98940.25
2022-12-25T19:12:47.539Z,98931.16
2022-12-25T19:15:17.009Z,98923.44
2022-12-25T19:17:46.252Z,98911.50
2022-12-25T19:20:15.581Z,98899.88
2022-12-25T19:22:44.821Z,98893.44
2022-12-25T19:25:14.793Z,98894.75
2022-12-25T19:27:44.102Z,98909.94
2022-12-25T19:30:13.876Z,98910.91
2022-12-25T19:32:43.079Z,98908.00
2022-12-25T19:35:12.278Z,98914.38
2022-12-25T19:37:41.543Z,98911.00
2022-12-25T19:40:11.677Z,98911.53
2022-12-25T19:42:40.900Z,98905.19
2022-12-25T19:45:10.656Z,98907.19
2022-12-25T19:47:41.253Z,98906.72
2022-12-25T19:50:10.893Z,98914.19
2022-12-25T19:52:40.084Z,98906.41
2022-12-25T19:55:09.417Z,98917.44
2022-12-25T19:57:40.253Z,98911.13
2022-12-25T20:00:10.712Z,98899.78
2022-12-25T20:02:42.875Z,98873.84
2022-12-25T20:05:12.205Z,98884.34
2022-12-25T20:07:41.427Z,98888.44
2022-12-25T20:10:12.009Z,98906.25
2022-12-25T20:12:41.924Z,98906.25
2022-12-25T20:15:11.487Z,98906.91
2022-12-25T20:17:40.807Z,98905.66
2022-12-25T20:20:10.755Z,98917.47
2022-12-25T20:22:40.526Z,98916.81
2022-12-25T20:25:11.179Z,98905.50
2022-12-25T20:27:40.429Z,98893.34
2022-12-25T20:30:10.491Z,98887.69
2022-12-25T20:32:42.535Z,98886.19
2022-12-25T20:35:16.096Z,98885.25
2022-12-25T20:37:45.360Z,98891.91
2022-12-25T20:40:14.599Z,98898.56
2022-12-25T20:42:43.797Z,98882.34
2022-12-25T20:45:13.012Z,98891.75
2022-12-25T20:47:42.199Z,98891.09
2022-12-25T20:50:11.381Z,98877.97
2022-12-25T20:52:40.645Z,98883.63
2022-12-25T20:55:10.144Z,98880.72
2022-12-25T20:57:39.836Z,98877.13
2022-12-25T21:00:10.416Z,98875.84
2022-12-25T21:02:39.876Z,98876.19
2022-12-25T21:05:12.754Z,98888.69
2022-12-25T21:07:42.069Z,98881.03
2022-12-25T21:10:11.441Z,98884.47
2022-12-25T21:12:42.045Z,98866.63
2022-12-25T21:15:15.333Z,98874.22
2022-12-25T21:17:45.327Z,98874.09
2022-12-25T21:20:14.610Z,98902.00
2022-12-25T21:22:43.866Z,98897.31
2022-12-25T21:25:13.080Z,98893.75
2022-12-25T21:27:42.298Z,98883.88
2022-12-25T21:30:14.542Z,98877.25
2022-12-25T21:33:03.905Z,98892.63
2022-12-25T21:35:37.793Z,98895.91
2022-12-25T21:38:07.125Z,98882.59
2022-12-25T21:40:38.043Z,98884.53
2022-12-25T21:43:07.696Z,98891.66
2022-12-25T21:45:36.936Z,98878.22
2022-12-25T21:48:06.369Z,98864.31
2022-12-25T21:50:54.248Z,98864.97
2022-12-25T21:53:23.470Z,98861.84
2022-12-25T21:56:02.537Z,98866.22
2022-12-25T21:58:32.071Z,98865.94
2022-12-25T22:01:05.596Z,98861.41
2022-12-25T22:03:34.996Z,98860.09
2022-12-25T22:06:39.885Z,98857.66
2022-12-25T22:09:09.608Z,98852.16
2022-12-25T22:11:57.623Z,98842.75
2022-12-25T22:14:52.873Z,98842.88
2022-12-25T22:17:49.329Z,98837.03
2022-12-25T22:20:37.348Z,98845.03
2022-12-25T22:23:07.354Z,98844.06
2022-12-25T22:25:36.821Z,98843.88
2022-12-25T22:28:06.146Z,98836.75
2022-12-25T22:30:35.355Z,98826.38
2022-12-25T22:33:04.596Z,98841.63
2022-12-25T22:35:33.822Z,98841.97
2022-12-25T22:38:03.114Z,98844.53
2022-12-25T22:40:32.355Z,98848.78
2022-12-25T22:43:01.524Z,98844.25
2022-12-25T22:45:30.749Z,98843.94
2022-12-25T22:47:59.936Z,98831.13
2022-12-25T22:50:29.187Z,98824.16
2022-12-25T22:52:58.361Z,98819.41
2022-12-25T22:55:27.609Z,98815.03
2022-12-25T22:57:56.942Z,98815.53
2022-12-25T23:00:26.285Z,98824.59
2022-12-25T23:02:55.584Z,98813.41
2022-12-25T23:05:24.933Z,98803.22
2022-12-25T23:07:54.161Z,98814.75
2022-12-25T23:10:23.430Z,98806.97
2022-12-25T23:13:10.996Z,98805.03
2022-12-25T23:15:40.301Z,98798.06
2022-12-25T23:18:28.534Z,98804.69
2022-12-25T23:21:20.806Z,98798.22
2022-12-25T23:24:10.247Z,98792.38
2022-12-25T23:26:39.432Z,98788.78
2022-12-25T23:29:44.148Z,98790.41
2022-12-25T23:32:28.155Z,98799.84
2022-12-25T23:34:57.546Z,98802.59
2022-12-25T23:37:26.726Z,98792.50
2022-12-25T23:39:56.653Z,98795.63
2022-12-25T23:42:25.861Z,98791.69
2022-12-25T23:44:55.065Z,98785.53
2022-12-25T23:47:24.292Z,98788.47
2022-12-25T23:49:53.506Z,98788.94
2022-12-25T23:52:22.737Z,98787.81
2022-12-25T23:54:52.034Z,98781.00
2022-12-25T23:57:21.330Z,98782.47
2022-12-25T23:59:50.554Z,98788.63
